Aviation Digital Data Service (ADDS)

Output produced by METARs form (1811 UTC 19 August 2019)
found at http://www.aviationweather.gov/metar/data/
 
Forecast for: OEJN (JEDDAH/KING ABDU, SA)
Text: TAF OEJN 191700Z 1918/2024 VRB03KT 9999 FEW040
Forecast period: 1800 UTC 19 August 2019 to 0600 UTC 20 August 2019
Forecast type: FROM: standard forecast or significant change
Winds: variable direction winds at 3 MPH (3 knots; 1.5 m/s)
Visibility: 6 or more miles 10+ km)
Ceiling: at least 12,000 feet AGL
Clouds: few clouds at 4000 feet AGL
Weather: no significant weather forecast for this period
Text: BECMG 2006/2008 34015KT
Forecast period: 0600 UTC 20 August 2019 to 0000 UTC 21 August 2019
Forecast type: BECOMING: Conditions expected to become as follows by 0800 UTC 20 August 2019
Winds: from the NNW (340 degrees) at 17 MPH (15 knots; 7.7 m/s)
Visibility: 6 or more miles 10+ km)
Ceiling: at least 12,000 feet AGL
Clouds: few clouds at 4000 feet AGL
Weather: no significant weather forecast for this period